sensor_id;sensor_type;location;lat;lon;timestamp;temperature;humidity
43647;DHT22;56152;49.996;18.980;2023-04-03T00:02:26;2.20;96.40
43647;DHT22;56152;49.996;18.980;2023-04-03T00:07:29;2.10;96.40
43647;DHT22;56152;49.996;18.980;2023-04-03T00:12:37;2.10;96.30
43647;DHT22;56152;49.996;18.980;2023-04-03T00:17:39;2.10;96.30
43647;DHT22;56152;49.996;18.980;2023-04-03T00:22:44;2.20;96.40
43647;DHT22;56152;49.996;18.980;2023-04-03T00:27:48;2.10;96.30
43647;DHT22;56152;49.996;18.980;2023-04-03T00:32:52;2.10;96.30
43647;DHT22;56152;49.996;18.980;2023-04-03T00:37:56;2.10;96.30
43647;DHT22;56152;49.996;18.980;2023-04-03T00:43:01;2.10;96.20
43647;DHT22;56152;49.996;18.980;2023-04-03T00:48:08;2.10;96.20
43647;DHT22;56152;49.996;18.980;2023-04-03T00:53:15;2.10;96.20
43647;DHT22;56152;49.996;18.980;2023-04-03T00:58:24;2.00;96.20
43647;DHT22;56152;49.996;18.980;2023-04-03T01:03:33;2.10;96.20
43647;DHT22;56152;49.996;18.980;2023-04-03T01:08:37;2.00;96.20
43647;DHT22;56152;49.996;18.980;2023-04-03T01:13:42;2.10;96.20
43647;DHT22;56152;49.996;18.980;2023-04-03T01:18:46;2.00;96.10
43647;DHT22;56152;49.996;18.980;2023-04-03T01:23:57;2.00;96.10
43647;DHT22;56152;49.996;18.980;2023-04-03T01:29:02;2.00;96.10
43647;DHT22;56152;49.996;18.980;2023-04-03T01:34:06;2.00;96.10
43647;DHT22;56152;49.996;18.980;2023-04-03T01:39:10;2.00;96.10
43647;DHT22;56152;49.996;18.980;2023-04-03T01:44:15;2.00;96.00
43647;DHT22;56152;49.996;18.980;2023-04-03T01:49:21;2.00;96.00
43647;DHT22;56152;49.996;18.980;2023-04-03T01:54:25;2.00;96.10
43647;DHT22;56152;49.996;18.980;2023-04-03T01:59:28;2.00;96.10
43647;DHT22;56152;49.996;18.980;2023-04-03T02:04:36;2.00;96.10
43647;DHT22;56152;49.996;18.980;2023-04-03T02:09:38;2.00;96.20
43647;DHT22;56152;49.996;18.980;2023-04-03T02:14:41;2.00;96.10
43647;DHT22;56152;49.996;18.980;2023-04-03T02:19:46;2.00;96.10
43647;DHT22;56152;49.996;18.980;2023-04-03T02:24:48;2.00;96.10
43647;DHT22;56152;49.996;18.980;2023-04-03T02:29:52;1.90;96.00
43647;DHT22;56152;49.996;18.980;2023-04-03T02:34:56;2.00;96.10
43647;DHT22;56152;49.996;18.980;2023-04-03T02:39:59;2.00;96.10
43647;DHT22;56152;49.996;18.980;2023-04-03T02:45:01;1.90;96.00
43647;DHT22;56152;49.996;18.980;2023-04-03T02:50:06;1.90;96.00
43647;DHT22;56152;49.996;18.980;2023-04-03T02:55:13;1.90;96.00
43647;DHT22;56152;49.996;18.980;2023-04-03T03:00:20;1.80;95.90
43647;DHT22;56152;49.996;18.980;2023-04-03T03:05:23;1.80;95.90
43647;DHT22;56152;49.996;18.980;2023-04-03T03:10:26;1.80;95.90
43647;DHT22;56152;49.996;18.980;2023-04-03T03:15:29;1.80;95.90
43647;DHT22;56152;49.996;18.980;2023-04-03T03:20:34;1.70;95.80
43647;DHT22;56152;49.996;18.980;2023-04-03T03:25:38;1.60;95.80
43647;DHT22;56152;49.996;18.980;2023-04-03T03:30:40;1.60;96.10
43647;DHT22;56152;49.996;18.980;2023-04-03T03:35:46;1.60;95.80
43647;DHT22;56152;49.996;18.980;2023-04-03T03:40:50;1.50;95.80
43647;DHT22;56152;49.996;18.980;2023-04-03T03:45:53;1.40;95.70
43647;DHT22;56152;49.996;18.980;2023-04-03T03:50:59;1.40;95.60
43647;DHT22;56152;49.996;18.980;2023-04-03T03:56:01;1.40;95.70
43647;DHT22;56152;49.996;18.980;2023-04-03T04:01:05;1.30;95.60
43647;DHT22;56152;49.996;18.980;2023-04-03T04:06:10;1.30;95.90
43647;DHT22;56152;49.996;18.980;2023-04-03T04:11:17;1.40;95.60
43647;DHT22;56152;49.996;18.980;2023-04-03T04:16:25;1.40;95.70
43647;DHT22;56152;49.996;18.980;2023-04-03T04:21:29;1.50;95.60
43647;DHT22;56152;49.996;18.980;2023-04-03T04:26:31;1.50;95.60
43647;DHT22;56152;49.996;18.980;2023-04-03T04:31:34;1.50;95.50
43647;DHT22;56152;49.996;18.980;2023-04-03T04:36:42;1.40;95.50
43647;DHT22;56152;49.996;18.980;2023-04-03T04:41:44;1.30;95.50
43647;DHT22;56152;49.996;18.980;2023-04-03T04:46:46;1.20;95.40
43647;DHT22;56152;49.996;18.980;2023-04-03T04:51:50;1.20;95.50
43647;DHT22;56152;49.996;18.980;2023-04-03T04:56:52;1.10;95.50
43647;DHT22;56152;49.996;18.980;2023-04-03T05:01:55;1.10;95.50
43647;DHT22;56152;49.996;18.980;2023-04-03T05:07:08;1.10;95.40
43647;DHT22;56152;49.996;18.980;2023-04-03T05:12:10;1.10;95.40
43647;DHT22;56152;49.996;18.980;2023-04-03T05:17:13;1.00;95.40
43647;DHT22;56152;49.996;18.980;2023-04-03T05:22:18;1.00;95.40
43647;DHT22;56152;49.996;18.980;2023-04-03T05:27:21;1.00;95.40
43647;DHT22;56152;49.996;18.980;2023-04-03T05:32:25;1.00;95.40
43647;DHT22;56152;49.996;18.980;2023-04-03T05:37:35;1.00;95.40
43647;DHT22;56152;49.996;18.980;2023-04-03T05:42:38;1.00;95.30
43647;DHT22;56152;49.996;18.980;2023-04-03T05:47:41;0.90;95.30
43647;DHT22;56152;49.996;18.980;2023-04-03T05:52:46;0.90;95.30
43647;DHT22;56152;49.996;18.980;2023-04-03T05:57:49;1.00;95.40
43647;DHT22;56152;49.996;18.980;2023-04-03T06:02:51;1.00;95.20
43647;DHT22;56152;49.996;18.980;2023-04-03T06:07:55;0.90;95.10
43647;DHT22;56152;49.996;18.980;2023-04-03T06:12:58;0.90;95.20
43647;DHT22;56152;49.996;18.980;2023-04-03T06:18:01;0.90;95.10
43647;DHT22;56152;49.996;18.980;2023-04-03T06:23:06;0.90;95.10
43647;DHT22;56152;49.996;18.980;2023-04-03T06:28:09;0.80;95.00
43647;DHT22;56152;49.996;18.980;2023-04-03T06:33:13;0.80;95.00
43647;DHT22;56152;49.996;18.980;2023-04-03T06:38:16;0.80;95.10
43647;DHT22;56152;49.996;18.980;2023-04-03T06:43:19;0.80;95.00
43647;DHT22;56152;49.996;18.980;2023-04-03T06:48:21;0.80;95.00
43647;DHT22;56152;49.996;18.980;2023-04-03T06:53:28;0.90;95.00
43647;DHT22;56152;49.996;18.980;2023-04-03T06:58:31;0.90;95.00
43647;DHT22;56152;49.996;18.980;2023-04-03T07:03:33;1.00;95.10
43647;DHT22;56152;49.996;18.980;2023-04-03T07:08:38;1.10;94.90
43647;DHT22;56152;49.996;18.980;2023-04-03T07:13:41;1.20;94.90
43647;DHT22;56152;49.996;18.980;2023-04-03T07:18:44;1.30;94.80
43647;DHT22;56152;49.996;18.980;2023-04-03T07:23:48;1.40;94.80
43647;DHT22;56152;49.996;18.980;2023-04-03T07:28:52;1.60;94.50
43647;DHT22;56152;49.996;18.980;2023-04-03T07:33:54;1.60;94.40
43647;DHT22;56152;49.996;18.980;2023-04-03T07:38:59;1.70;94.30
43647;DHT22;56152;49.996;18.980;2023-04-03T07:44:01;1.80;94.20
43647;DHT22;56152;49.996;18.980;2023-04-03T07:49:07;2.00;94.10
43647;DHT22;56152;49.996;18.980;2023-04-03T07:54:13;2.00;93.80
43647;DHT22;56152;49.996;18.980;2023-04-03T07:59:18;2.20;93.80
43647;DHT22;56152;49.996;18.980;2023-04-03T08:04:25;2.60;93.40
43647;DHT22;56152;49.996;18.980;2023-04-03T08:09:29;2.50;92.90
43647;DHT22;56152;49.996;18.980;2023-04-03T08:14:32;2.40;93.00
43647;DHT22;56152;49.996;18.980;2023-04-03T08:19:35;2.30;93.00
43647;DHT22;56152;49.996;18.980;2023-04-03T08:24:40;2.30;93.10
43647;DHT22;56152;49.996;18.980;2023-04-03T08:29:42;2.40;93.20
43647;DHT22;56152;49.996;18.980;2023-04-03T08:34:46;2.80;93.10
43647;DHT22;56152;49.996;18.980;2023-04-03T08:39:52;3.00;92.50
43647;DHT22;56152;49.996;18.980;2023-04-03T08:44:59;2.90;92.00
43647;DHT22;56152;49.996;18.980;2023-04-03T08:50:07;2.90;91.90
43647;DHT22;56152;49.996;18.980;2023-04-03T08:55:21;3.20;91.80
43647;DHT22;56152;49.996;18.980;2023-04-03T09:00:28;3.30;91.20
43647;DHT22;56152;49.996;18.980;2023-04-03T09:05:41;3.00;90.30
43647;DHT22;56152;49.996;18.980;2023-04-03T09:10:49;3.00;90.80
43647;DHT22;56152;49.996;18.980;2023-04-03T09:15:52;3.50;90.60
43647;DHT22;56152;49.996;18.980;2023-04-03T09:21:02;3.90;89.10
43647;DHT22;56152;49.996;18.980;2023-04-03T09:26:11;3.90;87.90
43647;DHT22;56152;49.996;18.980;2023-04-03T09:31:21;3.60;87.60
43647;DHT22;56152;49.996;18.980;2023-04-03T09:36:41;3.30;88.70
43647;DHT22;56152;49.996;18.980;2023-04-03T09:41:59;3.50;88.70
43647;DHT22;56152;49.996;18.980;2023-04-03T09:47:18;3.90;87.40
43647;DHT22;56152;49.996;18.980;2023-04-03T09:52:24;3.90;86.70
43647;DHT22;56152;49.996;18.980;2023-04-03T09:57:34;4.20;86.50
43647;DHT22;56152;49.996;18.980;2023-04-03T10:02:37;4.50;85.30
43647;DHT22;56152;49.996;18.980;2023-04-03T10:07:41;4.70;83.90
43647;DHT22;56152;49.996;18.980;2023-04-03T10:12:45;4.70;84.20
43647;DHT22;56152;49.996;18.980;2023-04-03T10:17:53;4.40;83.30
43647;DHT22;56152;49.996;18.980;2023-04-03T10:23:05;4.20;83.30
43647;DHT22;56152;49.996;18.980;2023-04-03T10:28:19;3.80;83.00
43647;DHT22;56152;49.996;18.980;2023-04-03T10:33:36;3.80;84.30
43647;DHT22;56152;49.996;18.980;2023-04-03T10:38:48;4.20;84.50
43647;DHT22;56152;49.996;18.980;2023-04-03T10:44:05;5.00;83.70
43647;DHT22;56152;49.996;18.980;2023-04-03T10:49:24;5.20;80.50
43647;DHT22;56152;49.996;18.980;2023-04-03T10:54:32;4.90;80.80
43647;DHT22;56152;49.996;18.980;2023-04-03T10:59:44;4.80;80.90
43647;DHT22;56152;49.996;18.980;2023-04-03T11:04:50;4.60;81.70
43647;DHT22;56152;49.996;18.980;2023-04-03T11:09:56;4.70;81.50
43647;DHT22;56152;49.996;18.980;2023-04-03T11:15:03;4.90;81.80
43647;DHT22;56152;49.996;18.980;2023-04-03T11:20:13;5.60;81.30
43647;DHT22;56152;49.996;18.980;2023-04-03T11:25:20;6.20;79.30
43647;DHT22;56152;49.996;18.980;2023-04-03T11:30:30;6.10;78.00
43647;DHT22;56152;49.996;18.980;2023-04-03T11:35:33;6.40;78.00
43647;DHT22;56152;49.996;18.980;2023-04-03T11:40:38;7.10;69.90
43647;DHT22;56152;49.996;18.980;2023-04-03T11:45:54;7.10;75.50
43647;DHT22;56152;49.996;18.980;2023-04-03T11:50:57;6.30;74.30
43647;DHT22;56152;49.996;18.980;2023-04-03T12:01:48;7.00;76.20
43647;DHT22;56152;49.996;18.980;2023-04-03T12:07:12;6.60;73.50
43647;DHT22;56152;49.996;18.980;2023-04-03T12:12:31;6.40;74.60
43647;DHT22;56152;49.996;18.980;2023-04-03T12:17:34;7.10;74.80
43647;DHT22;56152;49.996;18.980;2023-04-03T12:22:36;8.10;73.40
43647;DHT22;56152;49.996;18.980;2023-04-03T12:27:40;8.10;70.60
43647;DHT22;56152;49.996;18.980;2023-04-03T12:33:00;7.90;69.80
43647;DHT22;56152;49.996;18.980;2023-04-03T12:38:33;7.70;69.50
43647;DHT22;56152;49.996;18.980;2023-04-03T12:43:47;7.70;68.90
43647;DHT22;56152;49.996;18.980;2023-04-03T12:48:57;8.00;68.50
43647;DHT22;56152;49.996;18.980;2023-04-03T12:54:02;8.00;67.30
43647;DHT22;56152;49.996;18.980;2023-04-03T12:59:16;7.70;67.30
43647;DHT22;56152;49.996;18.980;2023-04-03T13:04:20;7.30;67.60
43647;DHT22;56152;49.996;18.980;2023-04-03T13:09:24;7.40;67.30
43647;DHT22;56152;49.996;18.980;2023-04-03T13:14:28;7.40;66.60
43647;DHT22;56152;49.996;18.980;2023-04-03T13:19:32;7.30;66.40
43647;DHT22;56152;49.996;18.980;2023-04-03T13:24:37;7.70;67.70
43647;DHT22;56152;49.996;18.980;2023-04-03T13:29:40;8.50;66.60
43647;DHT22;56152;49.996;18.980;2023-04-03T13:34:44;8.80;63.70
43647;DHT22;56152;49.996;18.980;2023-04-03T13:39:58;9.10;63.90
43647;DHT22;56152;49.996;18.980;2023-04-03T13:45:19;8.70;62.30
43647;DHT22;56152;49.996;18.980;2023-04-03T13:50:25;8.20;62.80
43647;DHT22;56152;49.996;18.980;2023-04-03T13:55:31;8.40;63.10
43647;DHT22;56152;49.996;18.980;2023-04-03T14:00:38;8.40;61.80
43647;DHT22;56152;49.996;18.980;2023-04-03T14:05:42;8.40;61.90
43647;DHT22;56152;49.996;18.980;2023-04-03T14:10:47;8.50;63.40
43647;DHT22;56152;49.996;18.980;2023-04-03T14:15:50;8.60;62.80
43647;DHT22;56152;49.996;18.980;2023-04-03T14:21:00;8.70;62.20
43647;DHT22;56152;49.996;18.980;2023-04-03T14:26:02;8.80;61.70
43647;DHT22;56152;49.996;18.980;2023-04-03T14:31:04;8.80;61.50
43647;DHT22;56152;49.996;18.980;2023-04-03T14:36:13;7.90;61.80
43647;DHT22;56152;49.996;18.980;2023-04-03T14:41:18;7.00;62.20
43647;DHT22;56152;49.996;18.980;2023-04-03T14:46:26;6.30;63.90
43647;DHT22;56152;49.996;18.980;2023-04-03T14:51:30;5.80;64.40
43647;DHT22;56152;49.996;18.980;2023-04-03T14:56:33;5.90;64.90
43647;DHT22;56152;49.996;18.980;2023-04-03T15:01:35;5.50;64.20
43647;DHT22;56152;49.996;18.980;2023-04-03T15:06:38;5.10;64.80
43647;DHT22;56152;49.996;18.980;2023-04-03T15:11:40;5.10;65.90
43647;DHT22;56152;49.996;18.980;2023-04-03T15:16:43;5.40;65.90
43647;DHT22;56152;49.996;18.980;2023-04-03T15:21:47;5.70;64.90
43647;DHT22;56152;49.996;18.980;2023-04-03T15:26:50;5.80;64.30
43647;DHT22;56152;49.996;18.980;2023-04-03T15:31:53;5.50;64.10
43647;DHT22;56152;49.996;18.980;2023-04-03T15:36:57;5.60;64.40
43647;DHT22;56152;49.996;18.980;2023-04-03T15:42:00;5.40;63.10
43647;DHT22;56152;49.996;18.980;2023-04-03T15:47:06;4.90;63.40
43647;DHT22;56152;49.996;18.980;2023-04-03T15:52:10;4.70;65.00
43647;DHT22;56152;49.996;18.980;2023-04-03T15:57:13;5.10;65.00
43647;DHT22;56152;49.996;18.980;2023-04-03T16:02:17;4.90;63.90
43647;DHT22;56152;49.996;18.980;2023-04-03T16:07:21;4.50;64.70
43647;DHT22;56152;49.996;18.980;2023-04-03T16:12:24;4.20;64.80
43647;DHT22;56152;49.996;18.980;2023-04-03T16:17:27;4.00;65.10
43647;DHT22;56152;49.996;18.980;2023-04-03T16:22:31;3.90;65.50
43647;DHT22;56152;49.996;18.980;2023-04-03T16:27:34;3.80;66.00
43647;DHT22;56152;49.996;18.980;2023-04-03T16:32:38;3.70;66.40
43647;DHT22;56152;49.996;18.980;2023-04-03T16:37:43;3.60;66.60
43647;DHT22;56152;49.996;18.980;2023-04-03T16:42:47;3.60;66.80
43647;DHT22;56152;49.996;18.980;2023-04-03T16:47:50;3.60;66.70
43647;DHT22;56152;49.996;18.980;2023-04-03T16:52:59;3.40;66.70
43647;DHT22;56152;49.996;18.980;2023-04-03T16:58:03;3.30;66.80
43647;DHT22;56152;49.996;18.980;2023-04-03T17:03:06;3.20;66.60
43647;DHT22;56152;49.996;18.980;2023-04-03T17:08:10;3.00;66.90
43647;DHT22;56152;49.996;18.980;2023-04-03T17:13:14;3.00;66.90
43647;DHT22;56152;49.996;18.980;2023-04-03T17:18:17;3.00;67.30
43647;DHT22;56152;49.996;18.980;2023-04-03T17:23:22;2.90;67.30
43647;DHT22;56152;49.996;18.980;2023-04-03T17:28:24;2.80;67.50
43647;DHT22;56152;49.996;18.980;2023-04-03T17:33:28;2.80;67.70
43647;DHT22;56152;49.996;18.980;2023-04-03T17:38:33;2.70;67.70
43647;DHT22;56152;49.996;18.980;2023-04-03T17:43:37;2.70;68.60
43647;DHT22;56152;49.996;18.980;2023-04-03T17:48:40;2.60;68.00
43647;DHT22;56152;49.996;18.980;2023-04-03T17:53:49;2.60;68.10
43647;DHT22;56152;49.996;18.980;2023-04-03T17:58:55;2.60;68.00
43647;DHT22;56152;49.996;18.980;2023-04-03T18:04:02;2.50;68.20
43647;DHT22;56152;49.996;18.980;2023-04-03T18:09:10;2.50;68.40
43647;DHT22;56152;49.996;18.980;2023-04-03T18:14:16;2.40;68.30
43647;DHT22;56152;49.996;18.980;2023-04-03T18:19:19;2.30;68.50
43647;DHT22;56152;49.996;18.980;2023-04-03T18:24:31;2.30;68.60
43647;DHT22;56152;49.996;18.980;2023-04-03T18:29:36;2.20;68.80
43647;DHT22;56152;49.996;18.980;2023-04-03T18:34:38;2.20;68.90
43647;DHT22;56152;49.996;18.980;2023-04-03T18:39:43;2.20;69.20
43647;DHT22;56152;49.996;18.980;2023-04-03T18:44:46;2.20;69.50
43647;DHT22;56152;49.996;18.980;2023-04-03T18:49:50;2.10;69.50
43647;DHT22;56152;49.996;18.980;2023-04-03T18:54:56;2.10;69.70
43647;DHT22;56152;49.996;18.980;2023-04-03T19:00:01;2.10;69.90
43647;DHT22;56152;49.996;18.980;2023-04-03T19:05:06;2.10;70.00
43647;DHT22;56152;49.996;18.980;2023-04-03T19:10:12;2.10;70.10
43647;DHT22;56152;49.996;18.980;2023-04-03T19:15:18;2.10;70.30
43647;DHT22;56152;49.996;18.980;2023-04-03T19:20:25;2.00;70.50
43647;DHT22;56152;49.996;18.980;2023-04-03T19:25:29;2.00;70.40
43647;DHT22;56152;49.996;18.980;2023-04-03T19:30:40;2.00;70.60
43647;DHT22;56152;49.996;18.980;2023-04-03T19:35:46;1.90;70.70
43647;DHT22;56152;49.996;18.980;2023-04-03T19:40:53;1.90;70.80
43647;DHT22;56152;49.996;18.980;2023-04-03T19:45:56;1.90;71.00
43647;DHT22;56152;49.996;18.980;2023-04-03T19:50:58;1.90;71.20
43647;DHT22;56152;49.996;18.980;2023-04-03T19:56:03;1.80;71.30
43647;DHT22;56152;49.996;18.980;2023-04-03T20:01:05;1.80;71.50
43647;DHT22;56152;49.996;18.980;2023-04-03T20:06:11;1.80;71.50
43647;DHT22;56152;49.996;18.980;2023-04-03T20:11:16;1.80;71.60
43647;DHT22;56152;49.996;18.980;2023-04-03T20:16:19;1.70;71.70
43647;DHT22;56152;49.996;18.980;2023-04-03T20:21:26;1.70;71.70
43647;DHT22;56152;49.996;18.980;2023-04-03T20:26:35;1.70;72.00
43647;DHT22;56152;49.996;18.980;2023-04-03T20:31:43;1.80;72.00
43647;DHT22;56152;49.996;18.980;2023-04-03T20:36:46;1.70;72.10
43647;DHT22;56152;49.996;18.980;2023-04-03T20:41:50;1.70;72.20
43647;DHT22;56152;49.996;18.980;2023-04-03T20:46:52;1.70;72.30
43647;DHT22;56152;49.996;18.980;2023-04-03T20:51:54;1.70;72.50
43647;DHT22;56152;49.996;18.980;2023-04-03T20:56:59;1.60;72.70
43647;DHT22;56152;49.996;18.980;2023-04-03T21:02:03;1.60;72.90
43647;DHT22;56152;49.996;18.980;2023-04-03T21:23:50;1.40;73.60
43647;DHT22;56152;49.996;18.980;2023-04-03T21:28:53;1.40;73.80
43647;DHT22;56152;49.996;18.980;2023-04-03T21:33:57;1.40;74.10
43647;DHT22;56152;49.996;18.980;2023-04-03T21:39:00;1.40;74.30
43647;DHT22;56152;49.996;18.980;2023-04-03T21:44:02;1.30;74.50
43647;DHT22;56152;49.996;18.980;2023-04-03T21:49:12;1.30;74.50
43647;DHT22;56152;49.996;18.980;2023-04-03T21:54:15;1.30;74.60
43647;DHT22;56152;49.996;18.980;2023-04-03T21:59:18;1.30;74.70
43647;DHT22;56152;49.996;18.980;2023-04-03T22:04:25;1.30;74.70
43647;DHT22;56152;49.996;18.980;2023-04-03T22:09:27;1.30;74.80
43647;DHT22;56152;49.996;18.980;2023-04-03T22:14:29;1.30;74.90
43647;DHT22;56152;49.996;18.980;2023-04-03T22:19:33;1.20;74.90
43647;DHT22;56152;49.996;18.980;2023-04-03T22:24:39;1.20;75.00
43647;DHT22;56152;49.996;18.980;2023-04-03T22:29:41;1.20;75.10
43647;DHT22;56152;49.996;18.980;2023-04-03T22:34:48;1.10;75.20
43647;DHT22;56152;49.996;18.980;2023-04-03T22:39:50;1.10;75.30
43647;DHT22;56152;49.996;18.980;2023-04-03T22:44:53;1.00;75.40
43647;DHT22;56152;49.996;18.980;2023-04-03T22:49:58;0.90;75.60
43647;DHT22;56152;49.996;18.980;2023-04-03T22:55:00;0.90;75.80
43647;DHT22;56152;49.996;18.980;2023-04-03T23:00:02;0.80;76.00
43647;DHT22;56152;49.996;18.980;2023-04-03T23:05:07;0.80;76.20
43647;DHT22;56152;49.996;18.980;2023-04-03T23:10:12;0.70;76.30
43647;DHT22;56152;49.996;18.980;2023-04-03T23:15:16;0.70;76.50
43647;DHT22;56152;49.996;18.980;2023-04-03T23:20:21;0.60;76.70
43647;DHT22;56152;49.996;18.980;2023-04-03T23:25:23;0.60;77.00
43647;DHT22;56152;49.996;18.980;2023-04-03T23:30:26;0.40;77.10
43647;DHT22;56152;49.996;18.980;2023-04-03T23:35:49;0.40;77.40
43647;DHT22;56152;49.996;18.980;2023-04-03T23:41:05;0.30;77.60
43647;DHT22;56152;49.996;18.980;2023-04-03T23:46:07;0.20;77.90
43647;DHT22;56152;49.996;18.980;2023-04-03T23:51:12;0.10;78.10
43647;DHT22;56152;49.996;18.980;2023-04-03T23:56:14;0.00;78.40
